createdAt,value
2023-01-13T00:00:48.660Z,979.8
2023-01-13T00:02:50.153Z,979.8
2023-01-13T00:04:51.247Z,979.6
2023-01-13T00:06:52.795Z,979.7
2023-01-13T00:10:55.817Z,979.7
2023-01-13T00:12:56.841Z,979.5
2023-01-13T00:14:58.336Z,979.6
2023-01-13T00:16:59.818Z,979.5
2023-01-13T00:19:00.795Z,979.7
2023-01-13T00:21:02.323Z,979.5
2023-01-13T00:23:04.065Z,979.5
2023-01-13T00:25:05.123Z,979.5
2023-01-13T00:27:06.431Z,979.4
2023-01-13T00:29:08.231Z,979.4
2023-01-13T00:31:09.285Z,979.5
2023-01-13T00:33:11.028Z,979.5
2023-01-13T00:37:13.369Z,979.4
2023-01-13T00:39:15.050Z,979.2
2023-01-13T00:41:16.221Z,979.4
2023-01-13T00:43:17.166Z,979.4
2023-01-13T00:47:20.118Z,979.2
2023-01-13T00:49:21.502Z,979.2
2023-01-13T00:51:23.314Z,979.2
2023-01-13T00:53:24.484Z,979.3
2023-01-13T00:55:25.506Z,979.2
2023-01-13T00:57:26.908Z,979.1
2023-01-13T00:59:28.584Z,979
2023-01-13T01:01:30.248Z,978.9
2023-01-13T01:03:32.067Z,978.8
2023-01-13T01:05:33.558Z,978.9
2023-01-13T01:07:35.483Z,978.8
2023-01-13T01:09:37.116Z,978.9
2023-01-13T01:11:38.298Z,979
2023-01-13T01:13:40.193Z,979
2023-01-13T01:15:41.554Z,979
2023-01-13T01:17:42.837Z,979
2023-01-13T01:19:44.219Z,979
2023-01-13T01:21:45.898Z,979
2023-01-13T01:23:46.886Z,979.1
2023-01-13T01:25:48.555Z,979.1
2023-01-13T01:27:50.381Z,979
2023-01-13T01:29:51.653Z,979.1
2023-01-13T01:31:53.040Z,979.1
2023-01-13T01:35:55.436Z,979
2023-01-13T01:37:56.457Z,979
2023-01-13T01:39:57.535Z,979.2
2023-01-13T01:41:59.232Z,979.1
2023-01-13T01:44:00.532Z,979.1
2023-01-13T01:46:01.732Z,979.1
2023-01-13T01:48:02.717Z,979.2
2023-01-13T01:52:05.504Z,979.1
2023-01-13T01:54:06.860Z,979.1
2023-01-13T01:56:08.280Z,978.9
2023-01-13T01:58:09.807Z,978.9
2023-01-13T02:00:11.257Z,979
2023-01-13T02:02:12.760Z,979
2023-01-13T02:04:14.128Z,978.9
2023-01-13T02:06:15.454Z,978.9
2023-01-13T02:08:17.036Z,979
2023-01-13T02:10:18.516Z,978.9
2023-01-13T02:12:19.770Z,978.9
2023-01-13T02:14:21.165Z,978.9
2023-01-13T02:16:22.759Z,978.9
2023-01-13T02:18:23.974Z,978.8
2023-01-13T02:20:25.000Z,978.9
2023-01-13T02:22:26.709Z,978.8
2023-01-13T02:24:28.231Z,978.8
2023-01-13T02:26:29.216Z,978.9
2023-01-13T02:28:31.110Z,978.8
2023-01-13T02:30:32.996Z,978.8
2023-01-13T02:34:35.194Z,978.8
2023-01-13T02:36:36.754Z,978.9
2023-01-13T02:38:37.777Z,978.9
2023-01-13T02:40:39.180Z,978.7
2023-01-13T02:42:40.494Z,978.8
2023-01-13T02:44:41.765Z,978.7
2023-01-13T02:46:42.959Z,978.7
2023-01-13T02:48:44.282Z,978.8
2023-01-13T02:50:45.856Z,978.7
2023-01-13T02:52:47.607Z,978.6
2023-01-13T02:54:48.587Z,978.6
2023-01-13T02:56:50.229Z,978.6
2023-01-13T03:00:52.660Z,978.6
2023-01-13T03:02:53.765Z,978.5
2023-01-13T03:04:55.153Z,978.5
2023-01-13T03:06:56.537Z,978.6
2023-01-13T03:10:59.886Z,978.4
2023-01-13T03:13:01.656Z,978.5
2023-01-13T03:15:03.510Z,978.5
2023-01-13T03:17:04.910Z,978.3
2023-01-13T03:19:06.714Z,978.5
2023-01-13T03:21:07.877Z,978.5
2023-01-13T03:23:09.523Z,978.4
2023-01-13T03:25:10.450Z,978.4
2023-01-13T03:27:11.694Z,978.3
2023-01-13T03:29:12.921Z,978.3
2023-01-13T03:33:15.202Z,978.3
2023-01-13T03:35:16.711Z,978.3
2023-01-13T03:37:18.081Z,978.3
2023-01-13T03:39:19.164Z,978.2
2023-01-13T03:41:20.743Z,978.2
2023-01-13T03:43:22.611Z,978.2
2023-01-13T03:45:23.657Z,978.1
2023-01-13T03:47:25.286Z,978.1
2023-01-13T03:49:26.549Z,978.2
2023-01-13T03:51:27.609Z,978.1
2023-01-13T03:53:29.018Z,978.1
2023-01-13T03:55:30.136Z,977.9
2023-01-13T03:57:31.335Z,978.1
2023-01-13T03:59:32.269Z,978.1
2023-01-13T04:01:33.664Z,978
2023-01-13T04:02:17.394Z,978
2023-01-13T04:04:18.892Z,978
2023-01-13T04:06:19.844Z,978.1
2023-01-13T04:08:21.117Z,978
2023-01-13T04:10:22.660Z,978.2
2023-01-13T04:12:24.132Z,978.1
2023-01-13T04:14:25.747Z,978.1
2023-01-13T04:16:27.361Z,978.1
2023-01-13T04:18:28.978Z,978.2
2023-01-13T04:20:30.365Z,978.2
2023-01-13T04:22:31.595Z,978.2
2023-01-13T04:24:32.864Z,978.2
2023-01-13T04:26:34.390Z,978.1
2023-01-13T04:28:35.315Z,978.1
2023-01-13T04:30:37.283Z,978.1
2023-01-13T04:32:38.267Z,978.1
2023-01-13T04:34:39.896Z,978.2
2023-01-13T04:36:41.579Z,978.1
2023-01-13T04:38:43.098Z,978.1
2023-01-13T04:42:45.751Z,978.1
2023-01-13T04:44:47.529Z,978.2
2023-01-13T04:46:48.760Z,978.1
2023-01-13T04:48:50.111Z,978.2
2023-01-13T04:50:51.212Z,978.1
2023-01-13T04:52:52.292Z,978.1
2023-01-13T04:54:53.739Z,978.2
2023-01-13T04:56:55.311Z,978
2023-01-13T04:58:57.089Z,978.2
2023-01-13T05:00:58.371Z,978.1
2023-01-13T05:02:59.938Z,978.1
2023-01-13T05:05:01.049Z,978.1
2023-01-13T05:09:03.992Z,978.2
2023-01-13T05:11:04.968Z,978.1
2023-01-13T05:13:06.268Z,978.1
2023-01-13T05:15:07.894Z,978.1
2023-01-13T05:17:09.564Z,978
2023-01-13T05:19:11.247Z,978
2023-01-13T05:21:12.196Z,978
2023-01-13T05:23:13.994Z,978
2023-01-13T05:25:15.424Z,978
2023-01-13T05:27:17.051Z,978
2023-01-13T05:29:18.679Z,978
2023-01-13T05:31:19.736Z,978
2023-01-13T05:33:21.173Z,978.1
2023-01-13T05:35:22.660Z,978
2023-01-13T05:37:23.734Z,977.9
2023-01-13T05:39:25.018Z,977.8
2023-01-13T05:41:26.623Z,978
2023-01-13T05:43:28.411Z,978
2023-01-13T05:45:29.564Z,978
2023-01-13T05:47:30.573Z,977.8
2023-01-13T05:49:31.815Z,977.9
2023-01-13T05:51:41.221Z,977.9
2023-01-13T05:53:34.192Z,977.8
2023-01-13T05:55:35.200Z,977.9
2023-01-13T05:57:37.006Z,977.9
2023-01-13T05:59:38.265Z,977.9
2023-01-13T06:01:40.248Z,977.9
2023-01-13T06:03:41.519Z,977.8
2023-01-13T06:07:44.545Z,977.9
2023-01-13T06:09:46.164Z,977.9
2023-01-13T06:11:47.966Z,977.9
2023-01-13T06:13:49.054Z,977.9
2023-01-13T06:15:50.981Z,977.8
2023-01-13T06:17:52.750Z,977.8
2023-01-13T06:19:54.191Z,977.8
2023-01-13T06:21:55.428Z,977.8
2023-01-13T06:23:57.012Z,977.8
2023-01-13T06:25:58.225Z,977.8
2023-01-13T06:27:59.361Z,977.8
2023-01-13T06:30:01.172Z,977.7
2023-01-13T06:32:02.396Z,977.7
2023-01-13T06:34:03.358Z,977.7
2023-01-13T06:36:13.560Z,977.7
2023-01-13T06:38:05.489Z,977.6
2023-01-13T06:40:06.920Z,977.6
2023-01-13T06:42:07.948Z,977.8
2023-01-13T06:44:09.207Z,977.8
2023-01-13T06:46:10.654Z,977.8
2023-01-13T06:48:12.079Z,977.8
2023-01-13T06:50:13.925Z,977.8
2023-01-13T06:52:15.195Z,977.8
2023-01-13T06:54:17.025Z,977.7
2023-01-13T06:56:18.716Z,977.8
2023-01-13T06:58:19.912Z,977.8
2023-01-13T07:00:20.982Z,977.8
2023-01-13T07:02:22.840Z,977.8
2023-01-13T07:06:25.766Z,977.7
2023-01-13T07:08:27.638Z,977.8
2023-01-13T07:10:29.355Z,977.5
2023-01-13T07:12:30.849Z,977.7
2023-01-13T07:14:32.220Z,977.7
2023-01-13T07:16:34.133Z,977.6
2023-01-13T07:18:35.791Z,977.6
2023-01-13T07:20:37.066Z,977.7
2023-01-13T07:22:38.809Z,977.7
2023-01-13T07:24:40.488Z,977.7
2023-01-13T07:26:42.154Z,977.7
2023-01-13T07:28:44.059Z,977.7
2023-01-13T07:30:45.566Z,977.7
2023-01-13T07:32:47.327Z,977.8
2023-01-13T07:34:48.827Z,977.7
2023-01-13T07:36:50.076Z,977.9
2023-01-13T07:38:53.948Z,978
2023-01-13T07:40:53.051Z,978
2023-01-13T07:42:54.347Z,978.1
2023-01-13T07:44:55.683Z,978.2
2023-01-13T07:46:56.801Z,978.1
2023-01-13T07:48:58.514Z,978.1
2023-01-13T07:50:59.845Z,978.2
2023-01-13T07:53:01.253Z,978.2
2023-01-13T07:55:03.107Z,978.2
2023-01-13T07:57:04.162Z,978.3
2023-01-13T07:59:05.764Z,978.3
2023-01-13T08:01:06.844Z,978.3
2023-01-13T08:03:08.323Z,978.3
2023-01-13T08:05:09.719Z,978.4
2023-01-13T08:07:10.717Z,978.4
2023-01-13T08:09:12.328Z,978.4
2023-01-13T08:11:13.523Z,978.5
2023-01-13T08:13:14.621Z,978.5
2023-01-13T08:15:15.654Z,978.6
2023-01-13T08:17:19.144Z,978.6
2023-01-13T08:19:18.798Z,978.6
2023-01-13T08:21:20.109Z,978.5
2023-01-13T08:23:21.710Z,978.6
2023-01-13T08:25:23.348Z,978.8
2023-01-13T08:27:24.318Z,978.8
2023-01-13T08:31:27.174Z,979.1
2023-01-13T08:33:29.138Z,979
2023-01-13T08:35:30.491Z,979.1
2023-01-13T08:37:31.635Z,979.1
2023-01-13T08:39:33.012Z,979.1
2023-01-13T08:41:34.754Z,979.1
2023-01-13T08:43:36.237Z,979.2
2023-01-13T08:45:38.053Z,979.3
2023-01-13T08:47:39.516Z,979.3
2023-01-13T08:49:40.840Z,979.3
2023-01-13T08:51:42.456Z,979.3
2023-01-13T08:53:43.442Z,979.2
2023-01-13T08:55:44.465Z,979.4
2023-01-13T08:57:45.958Z,979.4
2023-01-13T08:59:47.060Z,979.4
2023-01-13T09:01:49.090Z,979.4
2023-01-13T09:03:50.320Z,979.4
2023-01-13T09:05:51.340Z,979.4
2023-01-13T09:07:52.295Z,979.3
2023-01-13T09:09:53.527Z,979.3
2023-01-13T09:11:55.056Z,979.2
2023-01-13T09:13:56.331Z,979.3
2023-01-13T09:15:57.964Z,979.2
2023-01-13T09:17:59.795Z,979.3
2023-01-13T09:20:01.979Z,979.2
2023-01-13T09:22:03.035Z,979.3
2023-01-13T09:24:04.658Z,979.3
2023-01-13T09:26:05.589Z,979.3
2023-01-13T09:30:07.888Z,979.4
2023-01-13T09:32:09.067Z,979.3
2023-01-13T09:34:10.213Z,979.3
2023-01-13T09:36:12.062Z,979.3
2023-01-13T09:38:13.558Z,979.4
2023-01-13T09:40:14.864Z,979.4
2023-01-13T09:42:15.837Z,979.6
2023-01-13T09:44:16.874Z,979.5
2023-01-13T09:46:18.054Z,979.7
2023-01-13T09:48:19.281Z,979.8
2023-01-13T09:50:20.588Z,979.8
2023-01-13T09:52:21.654Z,979.8
2023-01-13T09:56:24.216Z,979.7
2023-01-13T09:58:25.962Z,979.7
2023-01-13T10:00:27.202Z,979.6
2023-01-13T10:02:28.520Z,979.7
2023-01-13T10:04:30.388Z,979.6
2023-01-13T10:06:32.236Z,979.7
2023-01-13T10:08:33.863Z,979.6
2023-01-13T10:10:35.569Z,979.6
2023-01-13T10:12:36.717Z,979.7
2023-01-13T10:14:38.449Z,979.8
2023-01-13T10:16:39.998Z,979.7
2023-01-13T10:18:40.959Z,979.6
2023-01-13T10:20:42.321Z,979.6
2023-01-13T10:22:43.627Z,979.7
2023-01-13T10:24:45.055Z,979.7
2023-01-13T10:26:46.796Z,979.6
2023-01-13T10:28:47.887Z,979.7
2023-01-13T10:30:48.926Z,979.5
2023-01-13T10:32:50.241Z,979.6
2023-01-13T10:34:52.117Z,979.6
2023-01-13T10:38:57.745Z,979.5
2023-01-13T10:40:56.644Z,979.5
2023-01-13T10:42:57.798Z,979.5
2023-01-13T10:44:59.286Z,979.4
2023-01-13T10:47:52.583Z,979.6
2023-01-13T10:49:54.066Z,979.4
2023-01-13T10:51:55.747Z,979.6
2023-01-13T10:53:57.004Z,979.5
2023-01-13T10:55:58.608Z,979.6
2023-01-13T10:58:00.213Z,979.5
2023-01-13T11:00:01.473Z,979.6
2023-01-13T11:02:10.254Z,979.5
2023-01-13T11:04:04.465Z,979.5
2023-01-13T11:06:06.031Z,979.6
2023-01-13T11:08:07.238Z,979.6
2023-01-13T11:10:08.982Z,979.6
2023-01-13T11:12:09.940Z,979.6
2023-01-13T11:16:12.600Z,979.6
2023-01-13T11:18:13.597Z,979.6
2023-01-13T11:20:14.839Z,979.6
2023-01-13T11:22:16.414Z,979.6
2023-01-13T11:26:18.940Z,979.6
2023-01-13T11:28:20.204Z,979.7
2023-01-13T11:30:22.077Z,979.8
2023-01-13T11:32:23.257Z,979.7
2023-01-13T11:34:24.735Z,979.9
2023-01-13T11:36:25.983Z,979.7
2023-01-13T11:38:27.301Z,979.9
2023-01-13T11:40:28.642Z,979.9
2023-01-13T11:42:30.125Z,979.9
2023-01-13T11:44:31.743Z,979.9
2023-01-13T11:46:33.173Z,979.9
2023-01-13T11:48:34.191Z,979.9
2023-01-13T11:50:35.359Z,979.9
2023-01-13T11:52:36.705Z,979.8
2023-01-13T11:54:37.915Z,979.9
2023-01-13T11:56:39.174Z,979.8
2023-01-13T11:58:50.111Z,979.8
2023-01-13T12:00:42.241Z,979.9
2023-01-13T12:02:44.038Z,979.8
2023-01-13T12:04:45.512Z,980
2023-01-13T12:06:47.184Z,979.8
2023-01-13T12:08:49.012Z,979.9
2023-01-13T12:10:50.466Z,980
2023-01-13T12:14:52.903Z,979.8
2023-01-13T12:16:54.146Z,979.9
2023-01-13T12:18:55.717Z,980
2023-01-13T12:20:56.784Z,980
2023-01-13T12:22:58.573Z,979.9
2023-01-13T12:24:59.749Z,979.9
2023-01-13T12:27:00.692Z,979.9
2023-01-13T12:31:03.655Z,980
2023-01-13T12:33:04.667Z,979.9
2023-01-13T12:35:05.955Z,980
2023-01-13T12:37:06.859Z,979.9
2023-01-13T12:39:08.002Z,979.9
2023-01-13T12:41:09.427Z,979.9
2023-01-13T12:43:10.697Z,979.9
2023-01-13T12:45:12.455Z,980
2023-01-13T12:47:13.504Z,979.8
2023-01-13T12:49:14.957Z,980
2023-01-13T12:51:18.177Z,979.9
2023-01-13T12:53:17.643Z,979.9
2023-01-13T12:55:19.478Z,979.8
2023-01-13T12:57:20.563Z,979.8
2023-01-13T12:59:22.400Z,980
2023-01-13T13:01:23.913Z,979.9
2023-01-13T13:03:25.004Z,980
2023-01-13T13:05:26.512Z,979.9
2023-01-13T13:07:28.958Z,980
2023-01-13T13:09:30.479Z,980
2023-01-13T13:11:31.586Z,980
2023-01-13T13:13:32.480Z,979.9
2023-01-13T13:15:33.453Z,979.9
2023-01-13T13:17:34.999Z,980
2023-01-13T13:19:36.691Z,980
2023-01-13T13:21:38.121Z,980
2023-01-13T13:23:39.876Z,980.1
2023-01-13T13:25:41.867Z,980.2
2023-01-13T13:27:43.626Z,980.2
2023-01-13T13:29:44.616Z,980.3
2023-01-13T13:31:46.242Z,980.3
2023-01-13T13:33:47.375Z,980.4
2023-01-13T13:35:49.118Z,980.4
2023-01-13T13:39:51.803Z,980.4
2023-01-13T13:41:53.006Z,980.5
2023-01-13T13:43:54.179Z,980.4
2023-01-13T13:45:55.795Z,980.8
2023-01-13T13:49:58.681Z,980.8
2023-01-13T13:51:59.992Z,980.8
2023-01-13T13:54:01.022Z,981
2023-01-13T13:56:11.479Z,980.8
2023-01-13T13:58:03.737Z,981.1
2023-01-13T14:00:05.112Z,981.1
2023-01-13T14:02:06.449Z,981.2
2023-01-13T14:04:07.898Z,981.1
2023-01-13T14:06:09.076Z,981.1
2023-01-13T14:08:09.960Z,981.3
2023-01-13T14:10:11.652Z,981.3
2023-01-13T14:12:13.007Z,981.3
2023-01-13T14:14:13.949Z,981.3
2023-01-13T14:16:15.440Z,981.3
2023-01-13T14:18:16.938Z,981.3
2023-01-13T14:20:18.154Z,981.2
2023-01-13T14:22:19.378Z,981.2
2023-01-13T14:24:20.502Z,981.3
2023-01-13T14:26:21.618Z,981.2
2023-01-13T14:28:22.644Z,981.2
2023-01-13T14:30:24.352Z,981.1
2023-01-13T14:32:26.064Z,981.1
2023-01-13T14:34:31.532Z,981.1
2023-01-13T14:36:29.029Z,981.1
2023-01-13T14:38:30.570Z,981.1
2023-01-13T14:40:31.565Z,981.2
2023-01-13T14:42:32.581Z,981.3
2023-01-13T14:44:34.520Z,981.1
2023-01-13T14:46:36.173Z,981.3
2023-01-13T14:48:37.900Z,981.3
2023-01-13T14:50:38.886Z,981.3
2023-01-13T14:54:41.981Z,981.3
2023-01-13T14:56:43.342Z,981.3
2023-01-13T14:58:44.565Z,981.2
2023-01-13T15:00:45.950Z,981.3
2023-01-13T15:02:47.093Z,981.3
2023-01-13T15:04:48.337Z,981.3
2023-01-13T15:06:49.329Z,981.3
2023-01-13T15:08:50.377Z,981.6
2023-01-13T15:10:52.218Z,981.6
2023-01-13T15:12:53.922Z,981.6
2023-01-13T15:14:55.819Z,981.6
2023-01-13T15:16:57.670Z,981.6
2023-01-13T15:18:58.895Z,981.6
2023-01-13T15:21:00.128Z,981.8
2023-01-13T15:23:01.312Z,982
2023-01-13T15:25:03.078Z,981.9
2023-01-13T15:27:04.653Z,982.1
2023-01-13T15:29:06.472Z,982.1
2023-01-13T15:31:07.556Z,982.1
2023-01-13T15:33:09.188Z,982.2
2023-01-13T15:35:10.685Z,982.3
2023-01-13T15:37:12.267Z,982.3
2023-01-13T15:39:14.106Z,982.4
2023-01-13T15:41:15.894Z,982.6
2023-01-13T15:43:17.117Z,982.5
2023-01-13T15:45:18.458Z,982.3
2023-01-13T15:47:19.910Z,982.4
2023-01-13T15:49:20.987Z,982.5
2023-01-13T15:51:22.450Z,982.6
2023-01-13T15:53:23.561Z,982.7
2023-01-13T15:55:24.924Z,982.7
2023-01-13T15:57:26.701Z,982.7
2023-01-13T15:59:28.010Z,982.7
2023-01-13T16:03:30.378Z,982.9
2023-01-13T16:05:31.737Z,983
2023-01-13T16:07:33.442Z,982.8
2023-01-13T16:09:35.061Z,982.9
2023-01-13T16:13:37.458Z,982.9
2023-01-13T16:15:38.717Z,982.8
2023-01-13T16:17:40.515Z,982.9
2023-01-13T16:19:41.789Z,982.9
2023-01-13T16:21:42.944Z,982.9
2023-01-13T16:23:44.065Z,982.9
2023-01-13T16:25:45.841Z,983
2023-01-13T16:27:47.222Z,982.9
2023-01-13T16:29:48.463Z,983
2023-01-13T16:31:50.169Z,983
2023-01-13T16:33:51.262Z,983
2023-01-13T16:36:09.007Z,983.1
2023-01-13T16:37:54.276Z,983.1
2023-01-13T16:39:55.601Z,983.1
2023-01-13T16:41:57.416Z,983.1
2023-01-13T16:43:58.716Z,983.1
2023-01-13T16:46:00.208Z,983.1
2023-01-13T16:48:01.643Z,983.2
2023-01-13T16:50:02.718Z,983.1
2023-01-13T16:52:04.576Z,983.2
2023-01-13T16:54:05.813Z,983.2
2023-01-13T16:56:07.101Z,983.2
2023-01-13T16:58:08.809Z,983.2
2023-01-13T17:02:12.003Z,983.2
2023-01-13T17:04:13.452Z,983.2
2023-01-13T17:06:14.636Z,983.1
2023-01-13T17:08:16.130Z,983.1
2023-01-13T17:10:17.975Z,983.2
2023-01-13T17:12:19.231Z,983.1
2023-01-13T17:14:20.735Z,983.2
2023-01-13T17:18:23.226Z,983.2
2023-01-13T17:20:24.255Z,983.1
2023-01-13T17:22:25.446Z,983.3
2023-01-13T17:24:27.169Z,983.2
2023-01-13T17:26:28.507Z,983.2
2023-01-13T17:28:29.917Z,983.3
2023-01-13T17:30:31.066Z,983.4
2023-01-13T17:32:32.669Z,983.3
2023-01-13T17:35:18.391Z,983.3
2023-01-13T17:37:19.498Z,983.3
2023-01-13T17:39:20.695Z,983.4
2023-01-13T17:41:21.943Z,983.4
2023-01-13T17:43:23.442Z,983.4
2023-01-13T17:45:24.938Z,983.4
2023-01-13T17:47:26.485Z,983.6
2023-01-13T17:49:27.610Z,983.5
2023-01-13T17:51:28.702Z,983.6
2023-01-13T17:53:30.777Z,983.6
2023-01-13T17:55:32.224Z,983.7
2023-01-13T17:57:33.772Z,983.6
2023-01-13T17:59:35.348Z,983.7
2023-01-13T18:01:36.894Z,983.8
2023-01-13T18:03:38.194Z,983.7
2023-01-13T18:05:39.650Z,983.8
2023-01-13T18:07:40.765Z,983.8
2023-01-13T18:09:42.640Z,983.8
2023-01-13T18:11:43.812Z,983.9
2023-01-13T18:13:45.396Z,983.9
2023-01-13T18:15:47.009Z,983.9
2023-01-13T18:17:48.124Z,983.9
2023-01-13T18:19:49.845Z,983.9
2023-01-13T18:21:51.491Z,983.9
2023-01-13T18:23:52.924Z,984
2023-01-13T18:25:54.084Z,984
2023-01-13T18:27:55.851Z,984
2023-01-13T18:31:58.672Z,984.2
2023-01-13T18:33:59.868Z,984.2
2023-01-13T18:36:01.676Z,984.2
2023-01-13T18:38:03.121Z,984.2
2023-01-13T18:40:04.602Z,984.1
2023-01-13T18:42:06.491Z,984.2
2023-01-13T18:44:07.560Z,984.2
2023-01-13T18:46:09.390Z,984.3
2023-01-13T18:48:10.393Z,984.4
2023-01-13T18:50:11.453Z,984.2
2023-01-13T18:52:12.855Z,984.2
2023-01-13T18:54:14.725Z,984.2
2023-01-13T18:56:15.816Z,984.3
2023-01-13T18:58:17.257Z,984.5
2023-01-13T19:00:18.592Z,984.3
2023-01-13T19:02:20.298Z,984.5
2023-01-13T19:04:21.607Z,984.3
2023-01-13T19:06:22.777Z,984.5
2023-01-13T19:08:24.420Z,984.5
2023-01-13T19:10:25.884Z,984.6
2023-01-13T19:12:27.688Z,984.6
2023-01-13T19:14:28.692Z,984.6
2023-01-13T19:16:30.158Z,984.7
2023-01-13T19:18:31.692Z,984.6
2023-01-13T19:20:32.678Z,984.7
2023-01-13T19:22:34.138Z,984.7
2023-01-13T19:24:35.947Z,984.7
2023-01-13T19:26:37.538Z,984.7
2023-01-13T19:28:38.914Z,984.8
2023-01-13T19:30:39.893Z,984.8
2023-01-13T19:32:41.564Z,984.8
2023-01-13T19:36:44.951Z,984.9
2023-01-13T19:38:46.825Z,984.9
2023-01-13T19:40:48.012Z,984.8
2023-01-13T19:42:49.270Z,985
2023-01-13T19:44:50.367Z,985
2023-01-13T19:46:51.946Z,985.1
2023-01-13T19:48:53.459Z,985.1
2023-01-13T19:50:55.095Z,985.1
2023-01-13T19:52:56.253Z,985.1
2023-01-13T19:54:57.576Z,985.1
2023-01-13T19:56:59.196Z,985.2
2023-01-13T19:59:00.755Z,985.2
2023-01-13T20:03:04.023Z,985.3
2023-01-13T20:05:05.471Z,985.4
2023-01-13T20:07:07.357Z,985.3
2023-01-13T20:09:08.659Z,985.5
2023-01-13T20:11:10.314Z,985.5
2023-01-13T20:13:11.824Z,985.4
2023-01-13T20:15:13.432Z,985.6
2023-01-13T20:19:17.020Z,985.6
2023-01-13T20:21:18.207Z,985.6
2023-01-13T20:23:19.699Z,985.7
2023-01-13T20:25:21.396Z,985.6
2023-01-13T20:27:22.762Z,985.5
2023-01-13T20:29:23.764Z,985.6
2023-01-13T20:31:25.659Z,985.6
2023-01-13T20:33:26.815Z,985.6
2023-01-13T20:35:28.409Z,985.6
2023-01-13T20:37:30.054Z,985.8
2023-01-13T20:39:31.045Z,985.7
2023-01-13T20:41:32.653Z,985.7
2023-01-13T20:45:34.969Z,985.7
2023-01-13T20:47:36.137Z,985.7
2023-01-13T20:49:38.012Z,985.7
2023-01-13T20:51:39.940Z,985.7
2023-01-13T20:55:42.627Z,986
2023-01-13T20:57:43.845Z,986.1
2023-01-13T20:59:45.718Z,986
2023-01-13T21:01:46.928Z,986.1
2023-01-13T21:03:47.836Z,986
2023-01-13T21:05:49.255Z,986.1
2023-01-13T21:07:51.025Z,985.9
2023-01-13T21:09:52.817Z,986
2023-01-13T21:11:53.818Z,986.1
2023-01-13T21:13:55.562Z,986.1
2023-01-13T21:15:57.569Z,986.2
2023-01-13T21:17:59.279Z,986.2
2023-01-13T21:20:02.323Z,986.1
2023-01-13T21:22:02.978Z,986.3
2023-01-13T21:24:04.604Z,986.3
2023-01-13T21:26:06.084Z,986.2
2023-01-13T21:28:07.964Z,986.3
2023-01-13T21:30:09.835Z,986.2
2023-01-13T21:34:12.131Z,986.3
2023-01-13T21:36:14.007Z,986.2
2023-01-13T21:38:14.974Z,986.2
2023-01-13T21:40:16.088Z,986.1
2023-01-13T21:42:17.988Z,986.3
2023-01-13T21:44:19.175Z,986.3
2023-01-13T21:46:20.302Z,986.2
2023-01-13T21:48:22.076Z,986.2
2023-01-13T21:50:24.012Z,986.3
2023-01-13T21:52:25.409Z,986.3
2023-01-13T21:54:26.548Z,986.3
2023-01-13T21:56:27.522Z,986.4
2023-01-13T22:00:30.494Z,986.4
2023-01-13T22:02:32.102Z,986.4
2023-01-13T22:04:33.260Z,986.3
2023-01-13T22:06:34.420Z,986.5
2023-01-13T22:08:35.949Z,986.6
2023-01-13T22:10:37.562Z,986.7
2023-01-13T22:12:39.128Z,986.7
2023-01-13T22:14:40.133Z,986.7
2023-01-13T22:16:41.309Z,986.8
2023-01-13T22:18:43.052Z,986.7
2023-01-13T22:20:44.826Z,986.8
2023-01-13T22:22:45.931Z,986.8
2023-01-13T22:24:47.852Z,986.7
2023-01-13T22:26:49.028Z,986.8
2023-01-13T22:28:50.326Z,986.8
2023-01-13T22:30:52.045Z,986.8
2023-01-13T22:32:53.066Z,986.9
2023-01-13T22:34:54.454Z,986.8
2023-01-13T22:36:56.217Z,986.9
2023-01-13T22:38:57.867Z,986.9
2023-01-13T22:40:59.173Z,986.8
2023-01-13T22:43:00.683Z,986.8
2023-01-13T22:45:02.222Z,986.8
2023-01-13T22:47:03.733Z,986.7
2023-01-13T22:49:04.984Z,986.7
2023-01-13T22:53:07.783Z,986.8
2023-01-13T22:55:09.033Z,986.8
2023-01-13T22:59:11.831Z,986.8
2023-01-13T23:01:13.164Z,986.8
2023-01-13T23:03:14.408Z,986.8
2023-01-13T23:05:16.155Z,986.8
2023-01-13T23:07:18.009Z,986.8
2023-01-13T23:09:19.104Z,986.9
2023-01-13T23:11:20.862Z,986.9
2023-01-13T23:13:22.117Z,986.9
2023-01-13T23:15:23.201Z,986.8
2023-01-13T23:17:24.925Z,987
2023-01-13T23:19:26.181Z,986.9
2023-01-13T23:21:27.897Z,987
2023-01-13T23:23:29.691Z,987
2023-01-13T23:25:30.800Z,986.9
2023-01-13T23:27:32.185Z,986.9
2023-01-13T23:29:33.176Z,986.9
2023-01-13T23:31:34.254Z,986.9
2023-01-13T23:33:35.660Z,986.9
2023-01-13T23:35:36.987Z,986.9
2023-01-13T23:37:38.052Z,987
2023-01-13T23:39:39.071Z,987
2023-01-13T23:41:40.976Z,986.9
2023-01-13T23:43:42.253Z,987
2023-01-13T23:45:44.079Z,986.9
2023-01-13T23:47:45.701Z,987
2023-01-13T23:49:46.972Z,986.9
2023-01-13T23:51:48.300Z,986.9
2023-01-13T23:53:49.813Z,987
2023-01-13T23:57:52.758Z,987.2
2023-01-13T23:59:54.364Z,987
